Time;durP1;ratioP1;P1;durP2;ratioP2;P2;SDS_P1;SDS_P2;PMS_P1;PMS_P2;Temp;Humidity;BMP_temperature;BMP_pressure;BME280_temperature;BME280_humidity;BME280_pressure;Samples;Min_cycle;Max_cycle;Signal;HPM_P1;HPM_P2
2022/01/04 00:01:49;;;;;;;20.60;9.07;;;;;;;3.72;83.28;94650.00;5103166;28;20267;-72
2022/01/04 00:04:16;;;;;;;24.38;8.85;;;;;;;3.77;83.57;94639.22;5103976;28;20206;-72
2022/01/04 00:06:45;;;;;;;15.35;5.13;;;;;;;3.80;83.09;94636.00;5110950;28;20212;-70
2022/01/04 00:09:13;;;;;;;15.80;7.13;;;;;;;3.92;82.28;94628.34;5113039;28;20289;-72
2022/01/04 00:11:58;;;;;;;13.70;6.55;;;;;;;3.91;82.77;94629.44;5112411;27;20246;-72
2022/01/04 00:14:26;;;;;;;15.15;5.90;;;;;;;3.99;82.15;94634.16;5113217;28;20533;-71
2022/01/04 00:16:55;;;;;;;15.15;6.22;;;;;;;3.91;82.75;94629.44;5113711;28;20225;-70
2022/01/04 00:19:22;;;;;;;12.40;6.78;;;;;;;3.90;82.97;94631.31;5109113;28;20217;-71
2022/01/04 00:21:50;;;;;;;12.73;7.03;;;;;;;3.80;82.99;94630.63;5105723;28;20253;-72
2022/01/04 00:24:18;;;;;;;14.80;6.47;;;;;;;3.54;83.96;94628.22;5109215;28;20209;-71
2022/01/04 00:26:46;;;;;;;14.45;6.15;;;;;;;3.56;84.96;94639.44;5105968;28;20243;-72
2022/01/04 00:29:13;;;;;;;12.45;6.07;;;;;;;3.49;85.62;94641.66;5114166;28;20209;-71
2022/01/04 00:31:40;;;;;;;13.00;6.85;;;;;;;3.40;85.64;94650.59;5113883;28;20222;-71
2022/01/04 00:34:08;;;;;;;14.18;6.60;;;;;;;3.43;86.52;94652.69;5113619;28;20259;-70
2022/01/04 00:36:35;;;;;;;14.70;7.60;;;;;;;3.53;87.08;94658.75;5113620;28;20202;-71
2022/01/04 00:39:02;;;;;;;16.33;7.35;;;;;;;3.48;86.64;94660.66;5113281;28;20273;-71
2022/01/04 00:41:31;;;;;;;15.45;7.90;;;;;;;3.57;87.19;94662.44;5113346;28;20229;-71
2022/01/04 00:43:58;;;;;;;15.48;7.07;;;;;;;3.53;85.90;94666.78;5113119;28;20258;-71
2022/01/04 00:46:26;;;;;;;16.15;6.78;;;;;;;3.28;85.07;94671.56;5113300;28;20668;-71
2022/01/04 00:49:11;;;;;;;15.07;7.30;;;;;;;3.20;85.24;94672.97;5100458;28;20199;-71
2022/01/04 00:51:39;;;;;;;12.57;5.50;;;;;;;3.28;85.94;94680.38;5113625;28;20225;-71
2022/01/04 00:54:07;;;;;;;11.68;5.15;;;;;;;3.42;86.29;94673.28;5113462;28;20202;-71
2022/01/04 00:56:36;;;;;;;11.68;5.93;;;;;;;3.49;85.48;94665.75;5112671;28;20205;-71
2022/01/04 00:59:05;;;;;;;11.40;5.85;;;;;;;3.44;85.00;94659.63;5113487;28;20208;-71
2022/01/04 01:01:33;;;;;;;15.93;6.43;;;;;;;3.44;85.50;94643.56;5113484;28;20201;-71
2022/01/04 01:04:00;;;;;;;13.43;6.20;;;;;;;3.48;85.03;94640.06;5113393;28;20197;-72
2022/01/04 01:06:28;;;;;;;15.73;6.85;;;;;;;3.36;84.60;94634.28;5113435;28;20202;-72
2022/01/04 01:08:55;;;;;;;15.40;6.55;;;;;;;3.20;84.67;94638.16;5113139;28;20211;-72
2022/01/04 01:11:22;;;;;;;16.35;6.30;;;;;;;3.14;84.35;94629.38;5113164;28;20222;-72
2022/01/04 01:13:51;;;;;;;15.57;6.82;;;;;;;3.10;84.53;94632.91;5112602;28;20679;-71
2022/01/04 01:16:19;;;;;;;16.95;5.93;;;;;;;2.98;85.50;94640.50;5099132;28;20643;-72
2022/01/04 01:18:47;;;;;;;17.08;6.32;;;;;;;2.91;85.37;94629.31;5113195;28;20198;-71
2022/01/04 01:21:15;;;;;;;12.88;5.80;;;;;;;2.89;85.77;94642.16;5112941;28;20201;-71
2022/01/04 01:23:42;;;;;;;13.15;6.57;;;;;;;2.78;85.85;94636.88;5113313;28;20317;-71
2022/01/04 01:26:10;;;;;;;15.60;7.15;;;;;;;2.68;86.55;94631.63;5112818;28;20198;-71
2022/01/04 01:28:38;;;;;;;15.68;6.60;;;;;;;2.84;87.07;94619.75;5112989;28;20286;-72
2022/01/04 01:31:07;;;;;;;12.65;6.32;;;;;;;2.81;87.13;94630.97;5098682;28;20205;-71
2022/01/04 01:33:35;;;;;;;18.30;8.95;;;;;;;2.92;86.95;94630.91;5112572;28;20237;-71
2022/01/04 01:36:02;;;;;;;16.02;6.88;;;;;;;2.94;86.36;94628.75;5112923;28;20209;-71
2022/01/04 01:38:30;;;;;;;12.77;6.00;;;;;;;2.96;85.93;94626.59;5112728;28;20557;-72
2022/01/04 01:40:57;;;;;;;13.40;6.13;;;;;;;3.01;85.36;94631.91;5112165;28;20237;-72
2022/01/04 01:43:28;;;;;;;9.95;5.88;;;;;;;3.04;87.13;94624.13;5113190;28;20189;-71
2022/01/04 01:45:56;;;;;;;11.10;5.32;;;;;;;3.09;87.15;94632.09;5113135;28;20681;-71
2022/01/04 01:48:25;;;;;;;10.00;5.38;;;;;;;3.05;85.94;94640.97;5112581;28;20208;-71
2022/01/04 01:50:52;;;;;;;12.80;5.40;;;;;;;2.83;85.83;94644.09;5112545;28;20235;-70
2022/01/04 01:53:20;;;;;;;14.35;6.63;;;;;;;2.77;86.39;94639.84;5112236;28;20225;-72
2022/01/04 01:55:47;;;;;;;11.82;6.05;;;;;;;2.77;87.13;94635.28;5112128;28;20230;-70
2022/01/04 01:58:15;;;;;;;10.73;6.00;;;;;;;2.73;86.76;94634.22;5107314;28;20679;-71
2022/01/04 02:00:42;;;;;;;11.18;6.47;;;;;;;2.72;86.87;94627.31;5103324;28;20307;-71
2022/01/04 02:03:09;;;;;;;11.48;5.72;;;;;;;2.67;87.27;94635.38;5112197;28;20201;-70
2022/01/04 02:05:39;;;;;;;16.70;6.00;;;;;;;2.77;88.69;94635.28;5111759;28;20649;-72
2022/01/04 02:08:07;;;;;;;13.90;6.65;;;;;;;2.93;89.05;94644.00;5111948;28;20205;-72
2022/01/04 02:10:35;;;;;;;16.38;6.70;;;;;;;2.75;86.85;94636.63;5111642;28;20699;-72
2022/01/04 02:13:02;;;;;;;11.55;5.63;;;;;;;2.69;86.27;94635.09;5111309;28;20229;-70
2022/01/04 02:15:33;;;;;;;9.27;5.30;;;;;;;2.67;86.82;94632.69;5111841;28;20208;-72
2022/01/04 02:18:00;;;;;;;9.88;5.25;;;;;;;2.50;86.75;94625.03;5098799;28;20190;-71
2022/01/04 02:20:29;;;;;;;9.45;5.07;;;;;;;2.58;86.85;94626.34;5112217;28;20614;-71
2022/01/04 02:22:57;;;;;;;13.25;5.35;;;;;;;2.52;87.61;94629.31;5110643;28;20205;-71
2022/01/04 02:25:25;;;;;;;12.07;5.10;;;;;;;2.45;86.77;94637.66;5111884;28;20294;-71
2022/01/04 02:27:52;;;;;;;11.43;5.40;;;;;;;2.55;87.45;94631.44;5111593;28;20202;-71
2022/01/04 02:30:21;;;;;;;11.55;5.80;;;;;;;2.54;87.12;94629.84;5110972;28;20202;-70
2022/01/04 02:32:49;;;;;;;11.85;5.43;;;;;;;2.45;87.50;94632.31;5111525;28;20289;-72
2022/01/04 02:35:20;;;;;;;13.10;6.07;;;;;;;2.29;87.98;94628.13;5095944;28;20213;-71
2022/01/04 02:37:50;;;;;;;14.85;6.50;;;;;;;2.43;88.54;94629.09;5100661;28;20246;-71
2022/01/04 02:40:17;;;;;;;13.65;6.55;;;;;;;2.54;88.01;94630.63;5111332;28;20222;-71
2022/01/04 02:42:44;;;;;;;11.55;5.35;;;;;;;2.57;88.17;94623.94;5110752;28;20679;-71
2022/01/04 02:45:12;;;;;;;15.48;6.55;;;;;;;2.63;87.59;94626.28;5111379;28;20659;-71
2022/01/04 02:47:40;;;;;;;11.75;5.47;;;;;;;2.53;86.33;94621.00;5111292;28;20277;-71
2022/01/04 02:50:08;;;;;;;13.95;5.68;;;;;;;2.44;86.12;94609.31;5111442;28;20675;-72
2022/01/04 02:52:36;;;;;;;14.80;6.22;;;;;;;2.34;86.80;94614.72;5111681;28;20302;-72
2022/01/04 02:55:07;;;;;;;10.27;5.80;;;;;;;2.34;87.19;94620.06;5097320;28;20232;-72
2022/01/04 02:57:35;;;;;;;13.52;6.15;;;;;;;2.42;87.10;94616.81;5111345;28;20309;-72
2022/01/04 03:00:04;;;;;;;12.82;6.57;;;;;;;2.31;87.36;94615.28;5110977;28;20242;-71
2022/01/04 03:02:31;;;;;;;8.88;5.50;;;;;;;2.18;87.64;94610.53;5111100;28;20202;-71
2022/01/04 03:04:58;;;;;;;10.57;4.57;;;;;;;2.28;87.34;94599.78;5111288;28;20563;-72
2022/01/04 03:07:26;;;;;;;9.15;4.93;;;;;;;2.35;86.89;94601.06;5111568;28;20212;-71
2022/01/04 03:09:53;;;;;;;12.18;5.60;;;;;;;2.31;87.20;94607.25;5111436;28;20580;-71
2022/01/04 03:12:22;;;;;;;12.13;5.13;;;;;;;2.27;87.13;94598.19;5110804;28;20680;-72
2022/01/04 03:14:50;;;;;;;7.93;4.60;;;;;;;2.28;87.64;94599.78;5111359;28;20202;-72
2022/01/04 03:17:17;;;;;;;7.57;4.50;;;;;;;2.28;87.62;94605.13;5097096;28;20654;-72
2022/01/04 03:19:44;;;;;;;7.57;4.90;;;;;;;2.24;87.87;94606.75;5111430;28;20202;-72
2022/01/04 03:22:12;;;;;;;10.60;5.05;;;;;;;2.24;88.54;94609.44;5111157;28;20202;-72
2022/01/04 03:24:39;;;;;;;13.07;6.30;;;;;;;2.29;88.37;94617.44;5111377;28;20205;-72
2022/01/04 03:27:06;;;;;;;7.68;4.82;;;;;;;2.31;87.67;94605.38;5111100;28;20202;-71
2022/01/04 03:29:35;;;;;;;33.28;15.13;;;;;;;2.27;87.77;94603.53;5111147;28;20691;-72
2022/01/04 03:32:02;;;;;;;26.27;12.23;;;;;;;2.18;87.53;94600.66;5110764;28;20603;-70
2022/01/04 03:34:30;;;;;;;17.48;8.43;;;;;;;2.23;87.79;94603.28;5111300;28;20225;-71
2022/01/04 03:36:57;;;;;;;12.40;5.55;;;;;;;2.29;87.99;94612.09;5111044;28;20205;-72
2022/01/04 03:39:24;;;;;;;14.95;7.63;;;;;;;2.27;87.33;94615.03;5111135;28;20222;-72
2022/01/04 03:41:52;;;;;;;12.30;6.10;;;;;;;2.20;87.25;94616.38;5112912;28;20723;-71
2022/01/04 03:44:20;;;;;;;21.60;9.20;;;;;;;2.08;87.80;94617.50;5114501;28;20205;-71
2022/01/04 03:46:49;;;;;;;15.57;7.63;;;;;;;2.03;87.55;94625.56;5114724;28;20229;-70
2022/01/04 03:49:17;;;;;;;20.95;9.52;;;;;;;2.10;87.37;94626.06;5114160;28;20729;-72
2022/01/04 03:51:45;;;;;;;17.48;7.60;;;;;;;2.12;86.22;94623.91;5112516;28;20201;-71
2022/01/04 03:54:12;;;;;;;12.30;6.03;;;;;;;2.00;86.95;94615.44;5113250;28;20233;-70
2022/01/04 03:56:39;;;;;;;19.08;7.45;;;;;;;2.06;87.08;94618.84;5110507;28;20198;-70
2022/01/04 03:59:07;;;;;;;18.33;6.97;;;;;;;2.02;86.87;94623.97;5113481;28;20427;-70
2022/01/04 04:01:34;;;;;;;13.68;6.88;;;;;;;2.01;87.14;94616.22;5113140;28;20206;-71
2022/01/04 04:04:03;;;;;;;15.00;7.47;;;;;;;2.07;86.85;94620.47;5113622;28;20189;-71
2022/01/04 04:06:30;;;;;;;16.27;7.53;;;;;;;2.10;87.27;94614.56;5113637;28;20190;-72
2022/01/04 04:08:58;;;;;;;21.63;10.90;;;;;;;2.12;87.69;94613.22;5112333;28;20202;-71
2022/01/04 04:11:25;;;;;;;35.75;16.45;;;;;;;2.19;86.76;94617.50;5113200;28;20558;-70
2022/01/04 04:13:53;;;;;;;27.17;12.00;;;;;;;2.12;86.35;94617.78;5113800;28;20317;-72
2022/01/04 04:16:20;;;;;;;14.20;6.03;;;;;;;2.06;87.36;94614.31;5100216;28;20208;-72
2022/01/04 04:18:48;;;;;;;34.00;18.25;;;;;;;2.06;87.32;94619.66;5113844;28;20201;-72
2022/01/04 04:21:16;;;;;;;27.40;14.45;;;;;;;2.09;87.39;94619.13;5113347;28;20652;-71
2022/01/04 04:23:44;;;;;;;22.23;12.70;;;;;;;2.09;87.01;94618.31;5113126;28;20204;-72
2022/01/04 04:26:11;;;;;;;17.50;7.85;;;;;;;1.99;87.20;94608.47;5113990;28;20201;-72
2022/01/04 04:28:38;;;;;;;8.73;4.13;;;;;;;1.77;87.36;94632.09;5113751;28;20209;-71
2022/01/04 04:31:06;;;;;;;11.48;4.88;;;;;;;1.63;88.25;94625.72;5114148;28;20208;-72
2022/01/04 04:33:33;;;;;;;8.27;4.35;;;;;;;1.60;88.91;94626.25;5113192;28;20236;-72
2022/01/04 04:36:01;;;;;;;14.88;7.20;;;;;;;1.74;89.07;94627.28;5113811;28;20200;-72
2022/01/04 04:38:29;;;;;;;20.10;8.55;;;;;;;1.80;89.34;94631.53;5113709;28;20221;-72
2022/01/04 04:40:57;;;;;;;19.33;8.15;;;;;;;1.90;89.08;94641.38;5113634;28;20696;-72
2022/01/04 04:43:24;;;;;;;19.77;9.32;;;;;;;1.80;88.54;94642.19;5096434;28;20684;-72
2022/01/04 04:45:51;;;;;;;16.63;8.52;;;;;;;1.71;88.58;94649.19;5103863;28;20206;-72
2022/01/04 04:48:19;;;;;;;29.08;13.00;;;;;;;1.76;89.65;94651.84;5108619;28;20205;-72
2022/01/04 04:50:46;;;;;;;16.05;8.60;;;;;;;1.75;89.00;94650.25;5113475;28;20209;-72
2022/01/04 04:53:13;;;;;;;51.05;22.88;;;;;;;6.89;99.79;94630.81;5112729;28;20885;-70
2022/01/04 04:55:42;;;;;;;18.95;9.57;;;;;;;5.17;100.00;94636.81;5113477;28;20198;-72
2022/01/04 04:58:10;;;;;;;15.30;7.68;;;;;;;4.31;100.00;94636.19;5109116;28;20680;-73
2022/01/04 05:00:37;;;;;;;18.60;8.32;;;;;;;3.43;99.04;94642.75;5104390;28;20255;-71
2022/01/04 05:03:05;;;;;;;16.48;8.25;;;;;;;2.97;96.03;94645.06;5113371;28;20198;-71
2022/01/04 05:05:32;;;;;;;14.55;7.50;;;;;;;2.57;94.67;94650.69;5112395;28;20194;-71
2022/01/04 05:07:59;;;;;;;16.42;7.07;;;;;;;2.29;94.37;94649.50;5112145;28;20202;-72
2022/01/04 05:10:27;;;;;;;15.00;6.93;;;;;;;2.11;94.37;94641.00;5112015;28;20217;-71
2022/01/04 05:12:55;;;;;;;14.43;7.78;;;;;;;1.92;93.11;94652.56;5110678;28;20614;-73
2022/01/04 05:15:23;;;;;;;18.65;8.27;;;;;;;1.76;91.89;94651.84;5110237;28;20190;-73
2022/01/04 05:17:50;;;;;;;16.00;7.30;;;;;;;1.78;93.14;94649.69;5111624;28;20671;-71
2022/01/04 05:20:17;;;;;;;15.10;7.45;;;;;;;1.49;92.22;94656.72;5111506;28;20202;-72
2022/01/04 05:22:44;;;;;;;11.98;6.60;;;;;;;1.42;92.11;94652.44;5111860;28;20587;-72
2022/01/04 05:25:12;;;;;;;14.38;8.10;;;;;;;1.45;92.27;94644.97;5111184;28;20572;-73
2022/01/04 05:27:39;;;;;;;16.73;7.85;;;;;;;1.46;91.73;94646.56;5111963;28;20209;-72
2022/01/04 05:30:09;;;;;;;16.00;8.80;;;;;;;1.55;91.49;94644.94;5105268;28;20203;-71
2022/01/04 05:32:36;;;;;;;21.23;9.90;;;;;;;1.54;90.80;94643.34;5112175;28;20204;-72
2022/01/04 05:35:04;;;;;;;18.35;8.68;;;;;;;1.64;91.10;94638.78;5112200;28;20740;-72
2022/01/04 05:37:31;;;;;;;20.05;9.20;;;;;;;1.70;90.57;94636.91;5110815;28;20222;-72
2022/01/04 05:39:59;;;;;;;22.85;10.85;;;;;;;1.63;90.54;94625.72;5111945;28;20210;-74
2022/01/04 05:42:26;;;;;;;20.52;8.98;;;;;;;1.61;90.22;94633.19;5106185;27;20229;-76
2022/01/04 05:44:54;;;;;;;24.05;11.55;;;;;;;1.73;90.41;94641.69;5111122;28;20205;-75
2022/01/04 05:47:24;;;;;;;23.50;10.25;;;;;;;1.73;90.07;94636.34;5112144;28;20194;-77
2022/01/04 05:49:52;;;;;;;24.13;11.13;;;;;;;1.74;89.83;94632.63;5098730;28;20202;-75
2022/01/04 05:52:19;;;;;;;20.88;10.38;;;;;;;1.73;89.63;94633.69;5100304;28;20233;-77
2022/01/04 05:54:49;;;;;;;14.52;8.15;;;;;;;1.82;89.38;94626.72;5111809;27;20431;-76
2022/01/04 05:57:16;;;;;;;13.10;7.80;;;;;;;1.88;89.60;94622.97;5112048;28;20574;-77
2022/01/04 05:59:44;;;;;;;22.95;8.52;;;;;;;1.91;89.29;94627.75;5111868;28;20625;-76
2022/01/04 06:02:11;;;;;;;18.75;7.93;;;;;;;1.81;89.16;94617.09;5112072;28;20205;-77
2022/01/04 06:04:40;;;;;;;19.50;8.82;;;;;;;1.90;89.69;94628.03;5093586;28;20732;-74
2022/01/04 06:07:07;;;;;;;25.92;11.70;;;;;;;1.88;89.83;94628.31;5102000;28;20665;-74
2022/01/04 06:09:42;;;;;;;18.65;9.48;;;;;;;1.90;89.78;94630.69;5111597;28;20789;-76
2022/01/04 06:14:51;;;;;;;20.08;9.15;;;;;;;1.97;89.18;94629.31;5098564;28;20229;-76
2022/01/04 06:17:20;;;;;;;16.92;9.27;;;;;;;2.05;89.82;94623.41;5109096;28;21244;-74
2022/01/04 06:19:49;;;;;;;18.27;8.70;;;;;;;2.05;88.84;94618.06;5099535;28;20197;-76
2022/01/04 06:22:16;;;;;;;20.75;9.80;;;;;;;2.23;88.20;94634.53;5109405;28;20205;-77
2022/01/04 06:24:43;;;;;;;16.90;9.55;;;;;;;2.33;88.43;94634.47;5091455;28;20210;-77
2022/01/04 06:27:11;;;;;;;20.23;10.60;;;;;;;2.43;88.28;94626.44;5107197;28;20667;-77
2022/01/04 06:29:40;;;;;;;18.48;10.13;;;;;;;2.46;88.24;94628.56;5111274;28;20262;-77
2022/01/04 06:32:08;;;;;;;22.00;10.60;;;;;;;2.58;88.50;94623.66;5111443;28;20216;-75
2022/01/04 06:34:37;;;;;;;23.40;10.70;;;;;;;2.63;88.24;94618.25;5111436;28;20584;-78
2022/01/04 06:37:06;;;;;;;23.02;10.00;;;;;;;2.84;87.85;94613.59;5111506;28;20224;-74
2022/01/04 06:39:34;;;;;;;30.48;12.65;;;;;;;2.93;87.17;94611.91;5111248;28;20205;-73
2022/01/04 06:42:01;;;;;;;36.35;17.33;;;;;;;2.99;86.63;94615.34;5111260;28;20324;-72
2022/01/04 06:44:29;;;;;;;31.40;13.13;;;;;;;2.89;87.02;94604.69;5111904;28;20209;-75
2022/01/04 06:46:56;;;;;;;28.05;13.23;;;;;;;3.03;87.30;94616.38;5112614;28;20213;-72
2022/01/04 06:49:24;;;;;;;30.52;15.73;;;;;;;3.23;86.91;94618.88;5111408;28;20205;-73
2022/01/04 06:51:52;;;;;;;28.30;13.25;;;;;;;3.37;85.62;94609.09;5110528;28;20217;-73
2022/01/04 06:54:22;;;;;;;35.35;17.50;;;;;;;3.38;85.63;94618.75;5111097;28;20228;-73
2022/01/04 06:56:50;;;;;;;30.15;12.98;;;;;;;3.61;86.00;94616.34;5111220;28;20641;-72
2022/01/04 06:59:18;;;;;;;23.38;12.25;;;;;;;3.67;84.89;94609.88;5111030;28;20213;-74
2022/01/04 07:01:46;;;;;;;31.58;12.77;;;;;;;3.71;85.07;94610.88;5097448;28;20201;-73
2022/01/04 07:04:14;;;;;;;23.88;11.70;;;;;;;3.78;84.69;94616.72;5111214;28;20229;-73
2022/01/04 07:06:42;;;;;;;28.00;12.60;;;;;;;3.76;84.23;94619.69;5098128;28;20194;-74
2022/01/04 07:09:09;;;;;;;33.67;12.00;;;;;;;3.88;84.11;94627.31;5111056;28;20633;-77
2022/01/04 07:11:39;;;;;;;27.33;12.05;;;;;;;3.73;84.29;94614.09;5110886;28;20197;-73
2022/01/04 07:14:06;;;;;;;24.05;13.02;;;;;;;3.57;84.06;94621.47;5097010;28;20230;-74
2022/01/04 07:16:34;;;;;;;18.70;10.80;;;;;;;3.24;84.60;94631.19;5115221;28;20262;-74
2022/01/04 07:19:01;;;;;;;21.13;11.30;;;;;;;3.11;85.44;94629.16;5115316;28;20201;-77
2022/01/04 07:21:29;;;;;;;27.05;12.57;;;;;;;3.17;86.48;94622.66;5114452;28;20560;-78
2022/01/04 07:23:56;;;;;;;28.35;15.57;;;;;;;3.49;85.38;94624.78;5114885;28;20197;-78
2022/01/04 07:26:24;;;;;;;30.00;15.25;;;;;;;3.74;84.66;94621.84;5114897;28;20667;-76
2022/01/04 07:28:53;;;;;;;28.10;14.25;;;;;;;4.03;84.65;94618.28;5115148;28;20233;-79
2022/01/04 07:31:20;;;;;;;29.95;11.98;;;;;;;3.80;82.25;94609.19;5114836;28;20301;-79
2022/01/04 07:33:48;;;;;;;27.35;12.07;;;;;;;3.77;81.51;94601.72;5114765;28;20319;-78
2022/01/04 07:36:16;;;;;;;28.25;12.35;;;;;;;3.85;81.64;94617.97;5114934;28;20221;-76
2022/01/04 07:38:44;;;;;;;26.80;12.18;;;;;;;3.82;82.18;94621.22;5114726;28;20205;-78
2022/01/04 07:41:12;;;;;;;28.17;13.50;;;;;;;3.65;82.37;94628.13;5114268;28;20230;-77
2022/01/04 07:43:39;;;;;;;35.35;13.18;;;;;;;3.61;83.05;94621.72;5114452;28;20262;-78
2022/01/04 07:46:08;;;;;;;29.83;13.02;;;;;;;3.60;83.18;94609.41;5113283;28;20213;-77
2022/01/04 07:48:35;;;;;;;31.15;15.90;;;;;;;3.61;83.77;94609.13;5112962;28;20220;-79
2022/01/04 07:51:03;;;;;;;36.22;17.80;;;;;;;3.55;83.18;94589.63;5114791;28;20217;-74
2022/01/04 07:53:31;;;;;;;30.95;16.13;;;;;;;3.74;84.32;94611.13;5100412;28;20202;-74
2022/01/04 07:55:59;;;;;;;35.47;16.48;;;;;;;3.73;82.92;94614.09;5114443;28;20654;-74
2022/01/04 07:58:26;;;;;;;27.52;12.60;;;;;;;3.64;82.92;94621.16;5114235;27;20193;-76
2022/01/04 08:00:54;;;;;;;42.88;17.85;;;;;;;3.55;84.63;94616.41;5113963;28;20596;-75
2022/01/04 08:03:22;;;;;;;37.40;16.90;;;;;;;3.53;84.82;94618.59;5114287;28;20687;-76
2022/01/04 08:05:50;;;;;;;48.75;17.40;;;;;;;3.65;84.20;94618.19;5100889;28;20225;-75
2022/01/04 08:08:17;;;;;;;33.72;17.80;;;;;;;3.72;83.63;94615.16;5100474;28;20279;-77
2022/01/04 08:10:46;;;;;;;38.53;18.88;;;;;;;3.90;84.47;94611.75;5114459;28;20201;-76
2022/01/04 08:13:14;;;;;;;38.45;19.42;;;;;;;4.08;83.55;94605.66;5113919;28;20201;-76
2022/01/04 08:15:41;;;;;;;36.17;18.77;;;;;;;4.29;82.41;94604.28;5114163;28;20225;-74
2022/01/04 08:18:08;;;;;;;38.75;17.08;;;;;;;4.56;80.03;94605.53;5114481;28;20631;-77
2022/01/04 08:20:37;;;;;;;36.10;17.98;;;;;;;4.62;79.52;94604.38;5114086;28;20213;-76
2022/01/04 08:23:05;;;;;;;38.38;16.65;;;;;;;4.67;79.91;94612.34;5114055;28;20700;-74
2022/01/04 08:25:32;;;;;;;38.60;19.15;;;;;;;4.46;80.38;94605.69;5113271;28;20205;-78
2022/01/04 08:27:59;;;;;;;44.20;19.42;;;;;;;4.65;79.51;94603.78;5112828;28;20206;-75
2022/01/04 08:30:27;;;;;;;45.28;21.23;;;;;;;4.83;79.05;94600.28;5111636;28;20210;-74
2022/01/04 08:32:54;;;;;;;44.70;22.52;;;;;;;4.67;79.82;94598.94;5093422;28;20205;-74
2022/01/04 08:35:22;;;;;;;39.75;20.60;;;;;;;4.68;79.52;94591.66;5095635;28;20230;-76
2022/01/04 08:37:51;;;;;;;42.00;20.73;;;;;;;4.61;80.08;94602.78;5113740;28;20202;-75
2022/01/04 08:40:18;;;;;;;43.45;22.00;;;;;;;4.59;80.22;94596.91;5113218;28;20660;-75
2022/01/04 08:42:45;;;;;;;48.05;23.60;;;;;;;4.71;79.14;94586.53;5112833;28;20237;-76
2022/01/04 08:45:13;;;;;;;37.63;21.30;;;;;;;4.92;78.82;94587.78;5113227;28;20233;-74
2022/01/04 08:47:41;;;;;;;57.78;24.73;;;;;;;5.11;78.80;94589.66;5113357;28;20201;-75
2022/01/04 08:50:11;;;;;;;49.65;21.83;;;;;;;5.30;77.87;94582.34;5113344;28;20198;-73
2022/01/04 08:52:38;;;;;;;33.85;17.80;;;;;;;5.17;77.32;94578.56;5113690;28;20746;-74
2022/01/04 08:55:08;;;;;;;39.00;20.08;;;;;;;5.08;77.86;94582.19;5112593;28;20233;-73
2022/01/04 08:57:35;;;;;;;46.00;21.50;;;;;;;5.14;77.72;94589.06;5113282;28;20205;-77
2022/01/04 09:00:04;;;;;;;33.45;16.92;;;;;;;5.02;77.90;94596.78;5109400;28;20610;-75
2022/01/04 09:02:33;;;;;;;50.17;22.63;;;;;;;4.96;78.68;94588.00;5112887;28;20572;-74
2022/01/04 09:05:00;;;;;;;36.28;20.30;;;;;;;5.10;78.51;94588.06;5111079;28;20208;-74
2022/01/04 09:07:27;;;;;;;45.58;23.35;;;;;;;5.40;77.35;94582.19;5112790;28;20302;-75
2022/01/04 09:09:55;;;;;;;46.40;22.50;;;;;;;5.51;77.39;94578.19;5099764;28;20201;-75
2022/01/04 09:12:28;;;;;;;46.28;21.88;;;;;;;5.69;77.33;94571.97;5112639;28;20213;-74
2022/01/04 09:14:59;;;;;;;43.15;22.10;;;;;;;5.68;76.49;94562.31;5112446;28;20221;-75
2022/01/04 09:20:13;;;;;;;51.70;29.13;;;;;;;6.04;75.81;94564.31;5113030;28;20563;-75
2022/01/04 09:22:41;;;;;;;44.45;22.17;;;;;;;5.99;75.25;94556.38;5107723;28;20210;-74
2022/01/04 09:25:10;;;;;;;44.40;20.52;;;;;;;6.11;75.37;94548.56;5104660;28;20202;-74
2022/01/04 09:27:39;;;;;;;41.08;20.27;;;;;;;6.28;75.44;94531.81;5112162;28;20198;-75
2022/01/04 09:30:07;;;;;;;56.63;26.25;;;;;;;6.53;73.65;94533.13;5112608;28;20208;-74
2022/01/04 09:32:36;;;;;;;45.97;21.85;;;;;;;6.31;74.00;94518.53;5113010;28;20286;-74
2022/01/04 09:35:07;;;;;;;43.22;21.33;;;;;;;6.45;73.75;94512.31;5112094;28;20229;-73
2022/01/04 09:37:34;;;;;;;35.85;21.48;;;;;;;6.45;73.27;94498.88;5100028;28;20198;-76
2022/01/04 09:40:02;;;;;;;39.97;21.17;;;;;;;6.58;72.82;94498.03;5112838;28;20205;-76
2022/01/04 09:42:29;;;;;;;39.97;20.13;;;;;;;8.17;85.18;94494.31;5111732;28;20233;-73
2022/01/04 09:44:58;;;;;;;42.72;18.75;;;;;;;8.83;77.10;94484.19;5111821;28;20202;-73
2022/01/04 09:47:25;;;;;;;43.88;21.33;;;;;;;7.62;73.79;94485.94;5112203;28;20251;-74
2022/01/04 09:49:53;;;;;;;33.38;17.45;;;;;;;7.20;70.57;94481.94;5098288;28;20260;-71
2022/01/04 09:52:22;;;;;;;39.20;18.73;;;;;;;6.99;71.53;94477.06;5112333;28;20209;-72
2022/01/04 09:54:52;;;;;;;35.65;19.23;;;;;;;8.61;79.54;94478.97;5112396;28;20316;-72
2022/01/04 09:57:20;;;;;;;35.28;19.70;;;;;;;7.70;70.49;94475.16;5111755;28;20811;-71
2022/01/04 09:59:49;;;;;;;39.85;20.17;;;;;;;8.24;73.45;94467.66;5100402;28;20202;-75
2022/01/04 10:02:20;;;;;;;42.00;26.80;;;;;;;7.64;69.71;94462.94;5102224;28;20594;-75
2022/01/04 10:04:48;;;;;;;47.97;26.50;;;;;;;7.58;69.48;94452.63;5111676;28;20198;-75
2022/01/04 10:07:20;;;;;;;36.65;19.00;;;;;;;7.16;70.21;94454.03;5111883;28;20220;-75
2022/01/04 10:09:52;;;;;;;45.33;21.67;;;;;;;6.93;71.89;94448.72;5111850;28;20680;-76
2022/01/04 10:12:21;;;;;;;42.47;22.33;;;;;;;7.46;70.50;94442.44;5111882;28;20202;-74
2022/01/04 10:14:50;;;;;;;40.08;20.20;;;;;;;7.51;69.82;94428.84;5111749;28;20635;-75
2022/01/04 10:17:23;;;;;;;28.08;15.15;;;;;;;7.39;68.19;94428.59;5111356;28;20679;-73
2022/01/04 10:19:53;;;;;;;21.00;10.90;;;;;;;7.39;68.27;94425.91;5112035;28;20202;-73
2022/01/04 10:22:24;;;;;;;41.60;21.40;;;;;;;7.42;68.82;94425.28;5111693;28;20194;-73
2022/01/04 10:25:10;;;;;;;31.05;17.00;;;;;;;7.38;68.13;94421.66;5111948;28;20206;-74
2022/01/04 10:27:39;;;;;;;33.22;17.98;;;;;;;7.41;68.12;94412.94;5110645;28;20198;-73
2022/01/04 10:30:20;;;;;;;39.03;19.00;;;;;;;7.63;68.12;94420.13;5110295;28;20228;-73
2022/01/04 10:32:59;;;;;;;29.70;16.67;;;;;;;7.78;66.77;94412.41;5111056;28;20190;-75
2022/01/04 10:35:30;;;;;;;31.15;15.43;;;;;;;7.79;66.74;94397.78;5111182;28;20240;-74
2022/01/04 10:38:00;;;;;;;33.22;15.88;;;;;;;8.03;66.55;94401.94;5111292;28;20198;-74
2022/01/04 10:40:28;;;;;;;28.33;15.50;;;;;;;8.01;66.11;94396.06;5110992;28;20204;-74
2022/01/04 10:42:55;;;;;;;28.70;14.93;;;;;;;8.08;66.20;94391.78;5091187;28;20205;-74
2022/01/04 10:45:25;;;;;;;33.03;16.25;;;;;;;8.18;65.24;94398.78;5091017;28;20202;-74
2022/01/04 10:47:54;;;;;;;25.55;15.52;;;;;;;8.09;65.47;94387.19;5090645;28;20202;-74
2022/01/04 10:50:35;;;;;;;30.80;14.85;;;;;;;8.09;65.21;94389.88;5076517;28;20225;-74
2022/01/04 10:53:04;;;;;;;28.67;15.15;;;;;;;8.27;65.26;94386.06;5091211;28;20198;-74
2022/01/04 10:55:32;;;;;;;29.98;16.65;;;;;;;8.35;65.41;94382.59;5090904;28;20275;-74
2022/01/04 10:58:00;;;;;;;28.55;15.82;;;;;;;8.61;64.33;94373.69;5090816;28;20206;-74
2022/01/04 11:00:29;;;;;;;31.75;13.02;;;;;;;8.88;63.05;94378.69;5089956;28;20251;-75
2022/01/04 11:03:00;;;;;;;26.08;14.02;;;;;;;9.03;62.99;94370.03;5087885;28;20207;-75
2022/01/04 11:05:28;;;;;;;28.50;14.75;;;;;;;9.19;62.05;94356.78;5080847;28;20864;-74
2022/01/04 11:07:59;;;;;;;26.92;16.63;;;;;;;8.78;62.27;94366.31;5090580;28;20198;-73
2022/01/04 11:10:28;;;;;;;28.48;17.13;;;;;;;8.68;62.99;94382.06;5090323;28;20198;-74
2022/01/04 11:12:57;;;;;;;26.73;14.43;;;;;;;8.71;62.52;94367.94;5090650;28;20263;-74
2022/01/04 11:15:24;;;;;;;26.63;14.88;;;;;;;8.81;62.26;94368.38;5090307;28;20231;-75
2022/01/04 11:17:52;;;;;;;28.48;16.23;;;;;;;8.71;62.75;94365.22;5090184;28;20287;-75
2022/01/04 11:20:21;;;;;;;25.58;15.65;;;;;;;8.76;63.47;94356.94;5090673;28;20221;-74
2022/01/04 11:22:50;;;;;;;23.83;15.40;;;;;;;8.82;63.00;94355.66;5090440;28;20202;-74
2022/01/04 11:25:19;;;;;;;34.55;16.55;;;;;;;8.73;63.17;94354.91;5077572;28;20206;-75
2022/01/04 11:27:47;;;;;;;30.00;16.92;;;;;;;8.87;62.99;94360.91;5077005;28;20573;-74
2022/01/04 11:30:18;;;;;;;25.92;16.73;;;;;;;8.72;63.50;94347.91;5089555;28;20202;-74
2022/01/04 11:32:52;;;;;;;33.83;18.88;;;;;;;8.88;63.76;94346.28;5090604;28;20198;-74
2022/01/04 11:35:24;;;;;;;34.42;17.83;;;;;;;9.08;63.29;94340.16;5089611;28;20228;-73
2022/01/04 11:37:52;;;;;;;30.60;17.00;;;;;;;9.14;63.03;94336.16;5090195;28;20278;-73
2022/01/04 11:40:24;;;;;;;26.52;16.45;;;;;;;9.27;63.38;94332.44;5090067;28;20298;-74